TimeEST,TemperatureF,Dew PointF,Humidity,Sea Level PressureIn,VisibilityMPH,Wind Direction,Wind SpeedMPH,Gust SpeedMPH,PrecipitationIn,Events,Conditions,WindDirDegrees,DateUTC
12:53 AM,68.0,66.0,93,29.91,10.0,SSW,5.8,-,N/A,,Mostly Cloudy,200,2012-12-11 05:53:00
1:53 AM,68.0,66.0,93,29.94,10.0,SSW,8.1,-,N/A,,Clear,200,2012-12-11 06:53:00
2:48 AM,68.0,66.2,94,29.93,10.0,South,8.1,-,N/A,,Partly Cloudy,180,2012-12-11 07:48:00
2:53 AM,68.0,66.9,96,29.92,10.0,South,5.8,-,N/A,,Partly Cloudy,170,2012-12-11 07:53:00
3:41 AM,68.0,66.0,93,29.93,10.0,South,5.8,-,N/A,,Scattered Clouds,190,2012-12-11 08:41:00
3:53 AM,68.0,66.0,93,29.93,10.0,SSW,4.6,-,N/A,,Clear,200,2012-12-11 08:53:00
4:53 AM,66.9,66.0,97,29.93,10.0,South,4.6,-,N/A,,Clear,180,2012-12-11 09:53:00
5:43 AM,68.0,66.9,96,29.93,7.0,South,5.8,-,N/A,,Scattered Clouds,190,2012-12-11 10:43:00
5:53 AM,68.0,66.9,96,29.93,7.0,South,4.6,-,N/A,,Mostly Cloudy,190,2012-12-11 10:53:00
6:11 AM,70.0,68.0,93,29.93,6.0,South,6.9,-,N/A,,Overcast,190,2012-12-11 11:11:00
6:22 AM,70.0,69.1,97,29.94,3.0,SSW,6.9,-,N/A,,Overcast,210,2012-12-11 11:22:00
6:24 AM,70.0,69.1,97,29.94,2.0,SSW,5.8,-,N/A,,Overcast,200,2012-12-11 11:24:00
6:27 AM,69.1,69.1,100,29.94,1.5,SSW,8.1,-,N/A,,Overcast,210,2012-12-11 11:27:00
6:45 AM,69.1,69.1,100,29.95,2.0,SW,5.8,-,N/A,,Overcast,220,2012-12-11 11:45:00
6:53 AM,69.1,69.1,100,29.95,2.0,SW,5.8,-,N/A,,Overcast,230,2012-12-11 11:53:00
7:06 AM,69.1,69.1,100,29.95,3.0,SSW,6.9,-,N/A,,Overcast,200,2012-12-11 12:06:00
7:53 AM,70.0,69.1,97,29.97,4.0,SSW,4.6,-,N/A,,Overcast,200,2012-12-11 12:53:00
8:24 AM,70.0,69.1,97,29.98,3.0,West,6.9,-,N/A,,Overcast,270,2012-12-11 13:24:00
8:41 AM,71.1,69.1,93,29.99,6.0,WSW,3.5,-,N/A,,Overcast,250,2012-12-11 13:41:00
8:53 AM,71.1,69.1,93,29.99,7.0,SW,4.6,-,N/A,,Overcast,230,2012-12-11 13:53:00
9:02 AM,71.1,69.1,93,30.00,9.0,SW,8.1,-,N/A,,Overcast,230,2012-12-11 14:02:00
9:36 AM,72.0,69.1,91,30.00,10.0,Variable,4.6,-,N/A,,Scattered Clouds,0,2012-12-11 14:36:00
9:53 AM,73.0,69.1,87,29.99,10.0,SW,6.9,-,N/A,,Clear,220,2012-12-11 14:53:00
10:53 AM,78.1,70.0,76,30.01,10.0,SW,4.6,-,N/A,,Clear,220,2012-12-11 15:53:00
11:53 AM,77.0,70.0,79,30.01,10.0,WSW,6.9,-,N/A,,Overcast,250,2012-12-11 16:53:00
12:53 PM,80.1,70.0,71,29.97,10.0,SW,8.1,-,N/A,,Mostly Cloudy,230,2012-12-11 17:53:00
1:53 PM,78.1,70.0,76,29.96,10.0,SW,9.2,-,N/A,,Mostly Cloudy,230,2012-12-11 18:53:00
2:42 PM,79.0,71.1,77,29.96,10.0,SW,8.1,-,N/A,,Mostly Cloudy,220,2012-12-11 19:42:00
2:50 PM,78.8,69.8,74,29.96,10.0,SW,10.4,-,N/A,,Mostly Cloudy,230,2012-12-11 19:50:00
2:53 PM,78.1,69.1,74,29.96,10.0,WSW,8.1,-,N/A,,Mostly Cloudy,240,2012-12-11 19:53:00
3:53 PM,77.0,70.0,79,29.96,10.0,SSW,3.5,-,N/A,,Mostly Cloudy,210,2012-12-11 20:53:00
4:53 PM,75.0,71.1,87,29.98,6.0,SW,8.1,-,0.01,Rain,Light Rain,230,2012-12-11 21:53:00
5:53 PM,73.0,70.0,90,29.97,10.0,SSE,3.5,-,0.02,,Partly Cloudy,150,2012-12-11 22:53:00
7:53 PM,71.1,70.0,96,30.01,6.0,Calm,Calm,-,N/A,,Clear,0,2012-12-12 00:53:00
8:53 PM,71.1,70.0,96,30.03,7.0,SSE,3.5,-,N/A,,Clear,160,2012-12-12 01:53:00
9:53 PM,71.1,70.0,96,30.04,9.0,WNW,3.5,-,N/A,,Clear,300,2012-12-12 02:53:00
10:53 PM,71.1,70.0,96,30.04,6.0,Calm,Calm,-,N/A,,Mostly Cloudy,0,2012-12-12 03:53:00
11:53 PM,71.1,70.0,96,30.04,7.0,Calm,Calm,-,N/A,,Mostly Cloudy,0,2012-12-12 04:53:00